Plymouth Union, Vermont
Current Conditions -  °F | °C
As of 9:35 PM on Friday 28 Nov 2014 (Local Time) from KRUT Reporting Station
Few Clouds Few Clouds  
Wind Chill: 18°   Ceiling: Unl
Heat Index: 18°   Visibility: 10mi
Dew Point: 10°   Wind: 0mph
Humidity: 73%   Direction: NA
Pressure: 30.16"   Gusts: NA
Location:  43.5113°N, 72.7233°W
Report Text: KRUT 290235Z 00000KT 10SM FEW038 M08/M12 A3016 RMK AO1
Loading
Personal Weather Stations






























Interactive Weather Map New forecast layout! Learn more

10-Day Weather Forecast

Advertisements
Track Severe Weather on mobile